createdAt,value
2018-09-30T00:02:16.885Z,62.53
2018-09-30T00:04:46.538Z,62.25
2018-09-30T00:07:16.194Z,62.05
2018-09-30T00:09:45.888Z,61.98
2018-09-30T00:12:15.539Z,61.94
2018-09-30T00:14:45.180Z,61.86
2018-09-30T00:17:14.816Z,62.46
2018-09-30T00:19:44.441Z,62.16
2018-09-30T00:22:14.123Z,62.38
2018-09-30T00:24:48.884Z,62.21
2018-09-30T00:27:21.800Z,62.95
2018-09-30T00:29:51.438Z,63.18
2018-09-30T00:32:21.099Z,63.03
2018-09-30T00:34:50.736Z,63.05
2018-09-30T00:37:20.396Z,63.59
2018-09-30T00:39:50.033Z,63.55
2018-09-30T00:42:19.768Z,63.85
2018-09-30T00:44:49.412Z,63.48
2018-09-30T00:47:19.092Z,63.73
2018-09-30T00:49:48.751Z,63.74
2018-09-30T00:52:18.405Z,63.62
2018-09-30T00:54:48.052Z,63.59
2018-09-30T00:57:17.726Z,64.17
2018-09-30T00:59:47.356Z,63.77
2018-09-30T01:02:17.024Z,64.27
2018-09-30T01:04:46.672Z,64.89
2018-09-30T01:07:16.331Z,65.37
2018-09-30T01:09:46.005Z,64.88
2018-09-30T01:12:15.693Z,64.83
2018-09-30T01:14:45.339Z,64.36
2018-09-30T01:17:15.041Z,64.55
2018-09-30T01:19:44.681Z,65.31
2018-09-30T01:22:14.339Z,65.10
2018-09-30T01:24:43.980Z,65.48
2018-09-30T01:27:13.656Z,65.04
2018-09-30T01:29:43.312Z,65.26
2018-09-30T01:32:12.973Z,65.53
2018-09-30T01:34:42.612Z,65.12
2018-09-30T01:37:12.280Z,64.75
2018-09-30T01:39:41.897Z,64.75
2018-09-30T01:42:11.577Z,64.47
2018-09-30T01:44:41.224Z,64.48
2018-09-30T01:47:10.892Z,64.76
2018-09-30T01:49:40.507Z,64.79
2018-09-30T01:52:21.024Z,65.58
2018-09-30T01:54:50.640Z,65.32
2018-09-30T01:57:20.348Z,65.05
2018-09-30T01:59:50.016Z,65.03
2018-09-30T02:02:19.685Z,65.54
2018-09-30T02:04:49.328Z,65.68
2018-09-30T02:07:19.008Z,65.50
2018-09-30T02:09:48.655Z,65.94
2018-09-30T02:12:18.300Z,66.69
2018-09-30T02:14:47.996Z,65.81
2018-09-30T02:17:17.645Z,65.78
2018-09-30T02:19:47.341Z,66.34
2018-09-30T02:22:16.975Z,65.77
2018-09-30T02:24:46.611Z,65.79
2018-09-30T02:27:16.276Z,65.67
2018-09-30T02:29:45.900Z,66.00
2018-09-30T02:32:15.528Z,66.30
2018-09-30T02:34:45.247Z,66.61
2018-09-30T02:37:14.875Z,66.40
2018-09-30T02:39:44.524Z,66.23
2018-09-30T02:42:14.520Z,66.78
2018-09-30T02:44:44.616Z,66.43
2018-09-30T02:47:14.354Z,67.06
2018-09-30T02:49:44.002Z,67.55
2018-09-30T02:52:13.644Z,67.62
2018-09-30T02:54:43.319Z,67.96
2018-09-30T02:57:12.941Z,67.78
2018-09-30T02:59:42.573Z,67.03
2018-09-30T03:02:12.266Z,67.20
2018-09-30T03:04:41.909Z,67.09
2018-09-30T03:07:16.799Z,66.61
2018-09-30T03:09:46.440Z,67.20
2018-09-30T03:12:16.127Z,66.32
2018-09-30T03:14:45.768Z,67.83
2018-09-30T03:17:15.468Z,67.28
2018-09-30T03:19:45.120Z,66.53
2018-09-30T03:22:14.804Z,67.18
2018-09-30T03:24:44.732Z,66.72
2018-09-30T03:27:14.393Z,66.66
2018-09-30T03:29:44.041Z,67.66
2018-09-30T03:32:13.800Z,67.57
2018-09-30T03:34:43.435Z,66.86
2018-09-30T03:37:13.146Z,67.11
2018-09-30T03:39:42.856Z,67.35
2018-09-30T03:42:12.447Z,67.44
2018-09-30T03:44:42.156Z,67.49
2018-09-30T03:47:11.809Z,67.66
2018-09-30T03:49:41.447Z,67.70
2018-09-30T03:52:11.143Z,66.99
2018-09-30T03:54:40.812Z,67.46
2018-09-30T03:57:10.462Z,67.22
2018-09-30T03:59:40.161Z,66.56
2018-09-30T04:02:09.843Z,66.62
2018-09-30T04:04:39.480Z,66.48
2018-09-30T04:07:09.173Z,66.44
2018-09-30T04:09:38.990Z,66.56
2018-09-30T04:12:08.608Z,66.93
2018-09-30T04:14:38.337Z,67.00
2018-09-30T04:17:08.076Z,66.44
2018-09-30T04:19:37.636Z,65.76
2018-09-30T04:22:07.469Z,66.46
2018-09-30T04:24:37.121Z,66.52
2018-09-30T04:27:06.775Z,66.63
2018-09-30T04:29:36.473Z,65.58
2018-09-30T04:32:06.121Z,65.76
2018-09-30T04:34:35.765Z,65.63
2018-09-30T04:37:05.638Z,66.58
2018-09-30T04:39:35.275Z,66.89
2018-09-30T04:42:04.920Z,66.86
2018-09-30T04:44:34.628Z,66.19
2018-09-30T04:47:04.278Z,66.07
2018-09-30T04:49:34.083Z,66.15
2018-09-30T04:52:03.733Z,66.46
2018-09-30T04:54:33.364Z,66.52
2018-09-30T04:57:03.055Z,67.58
2018-09-30T04:59:32.692Z,67.63
2018-09-30T05:02:02.336Z,67.61
2018-09-30T05:04:32.017Z,67.42
2018-09-30T05:07:01.657Z,67.95
2018-09-30T05:09:31.300Z,67.45
2018-09-30T05:12:01.011Z,67.45
2018-09-30T05:14:30.664Z,67.95
2018-09-30T05:17:00.312Z,68.65
2018-09-30T05:19:30.006Z,67.63
2018-09-30T05:21:59.636Z,67.63
2018-09-30T05:24:29.300Z,67.57
2018-09-30T05:26:59.012Z,68.00
2018-09-30T05:29:28.630Z,68.10
2018-09-30T05:31:58.292Z,67.45
2018-09-30T05:34:27.955Z,67.43
2018-09-30T05:36:57.602Z,68.08
2018-09-30T05:39:27.280Z,67.52
2018-09-30T05:41:56.904Z,67.49
2018-09-30T05:44:26.546Z,67.25
2018-09-30T05:46:56.244Z,67.83
2018-09-30T05:49:25.914Z,67.64
2018-09-30T05:51:55.556Z,67.04
2018-09-30T05:54:25.224Z,66.61
2018-09-30T05:56:54.861Z,66.77
2018-09-30T05:59:24.504Z,66.36
2018-09-30T06:01:54.144Z,66.40
2018-09-30T06:04:23.800Z,65.69
2018-09-30T06:06:53.460Z,66.58
2018-09-30T06:09:23.147Z,66.77
2018-09-30T06:11:52.870Z,66.52
2018-09-30T06:14:22.755Z,65.77
2018-09-30T06:16:52.603Z,66.11
2018-09-30T06:19:22.269Z,66.10
2018-09-30T06:21:51.908Z,66.53
2018-09-30T06:24:21.564Z,66.81
2018-09-30T06:26:51.220Z,66.64
2018-09-30T06:29:20.878Z,67.32
2018-09-30T06:31:50.524Z,67.39
2018-09-30T06:34:20.177Z,66.25
2018-09-30T06:36:49.824Z,66.42
2018-09-30T06:39:19.507Z,67.12
2018-09-30T06:41:49.141Z,67.31
2018-09-30T06:44:18.800Z,66.30
2018-09-30T06:46:48.437Z,66.08
2018-09-30T06:49:18.089Z,65.65
2018-09-30T06:51:47.768Z,65.53
2018-09-30T06:54:17.447Z,64.35
2018-09-30T06:56:47.068Z,63.75
2018-09-30T06:59:16.733Z,64.67
2018-09-30T07:01:46.383Z,63.71
2018-09-30T07:04:16.044Z,64.19
2018-09-30T07:06:45.668Z,63.59
2018-09-30T07:09:15.372Z,63.29
2018-09-30T07:11:45.008Z,62.60
2018-09-30T07:14:14.672Z,63.45
2018-09-30T07:16:44.333Z,62.39
2018-09-30T07:19:14.380Z,62.33
2018-09-30T07:21:44.020Z,62.17
2018-09-30T07:24:13.677Z,61.69
2018-09-30T07:26:43.316Z,61.76
2018-09-30T07:29:12.961Z,61.33
2018-09-30T07:31:42.617Z,61.22
2018-09-30T07:34:12.276Z,61.54
2018-09-30T07:36:41.920Z,60.41
2018-09-30T07:39:12.136Z,61.21
2018-09-30T07:41:41.764Z,60.25
2018-09-30T07:44:11.439Z,60.93
2018-09-30T07:46:41.119Z,60.38
2018-09-30T07:49:10.760Z,59.78
2018-09-30T07:51:40.380Z,60.17
2018-09-30T07:54:10.217Z,60.53
2018-09-30T07:56:39.860Z,59.90
2018-09-30T07:59:09.576Z,58.95
2018-09-30T08:01:39.211Z,60.00
2018-09-30T08:04:08.872Z,59.01
2018-09-30T08:06:38.516Z,59.10
2018-09-30T08:09:08.978Z,58.29
2018-09-30T08:11:38.660Z,57.65
2018-09-30T08:14:08.484Z,56.79
2018-09-30T08:16:38.192Z,56.82
2018-09-30T08:19:07.912Z,56.17
2018-09-30T08:21:37.583Z,56.86
2018-09-30T08:24:07.371Z,56.02
2018-09-30T08:26:36.947Z,56.89
2018-09-30T08:29:07.299Z,55.16
2018-09-30T08:31:36.932Z,55.57
2018-09-30T08:34:06.628Z,54.72
2018-09-30T08:36:36.276Z,54.88
2018-09-30T08:39:08.294Z,54.13
2018-09-30T08:41:37.975Z,53.20
2018-09-30T08:44:07.850Z,53.53
2018-09-30T08:46:37.517Z,52.84
2018-09-30T08:49:07.370Z,52.68
2018-09-30T08:51:37.339Z,51.62
2018-09-30T08:54:07.192Z,51.98
2018-09-30T08:56:36.821Z,51.83
2018-09-30T08:59:06.534Z,52.13
2018-09-30T09:01:36.172Z,51.72
2018-09-30T09:04:05.813Z,52.31
2018-09-30T09:06:35.468Z,51.46
2018-09-30T09:09:07.288Z,51.33
2018-09-30T09:11:36.924Z,49.67
2018-09-30T09:14:06.647Z,52.22
2018-09-30T09:16:36.340Z,50.49
2018-09-30T09:19:06.063Z,48.02
2018-09-30T09:21:35.676Z,49.13
2018-09-30T09:24:05.352Z,48.70
2018-09-30T09:26:34.980Z,48.52
2018-09-30T09:29:04.644Z,47.83
2018-09-30T09:31:34.345Z,48.06
2018-09-30T09:34:03.996Z,47.82
2018-09-30T09:36:35.080Z,48.02
2018-09-30T09:39:07.784Z,47.53
2018-09-30T09:41:37.897Z,47.30
2018-09-30T09:44:07.928Z,47.64
2018-09-30T09:46:37.547Z,47.34
2018-09-30T09:49:07.203Z,47.27
2018-09-30T09:51:36.851Z,46.74
2018-09-30T09:54:06.515Z,47.30
2018-09-30T09:56:36.135Z,44.72
2018-09-30T09:59:06.161Z,45.86
2018-09-30T10:01:35.771Z,44.21
2018-09-30T10:04:05.436Z,44.54
2018-09-30T10:06:35.043Z,45.25
2018-09-30T10:09:05.662Z,44.65
2018-09-30T10:11:35.305Z,43.46
2018-09-30T10:14:04.982Z,44.37
2018-09-30T10:16:34.612Z,43.71
2018-09-30T10:19:04.276Z,43.99
2018-09-30T10:21:33.918Z,44.27
2018-09-30T10:24:03.633Z,43.44
2018-09-30T10:26:33.268Z,43.60
2018-09-30T10:29:02.922Z,42.80
2018-09-30T10:31:32.543Z,43.11
2018-09-30T10:34:02.249Z,41.94
2018-09-30T10:36:32.196Z,43.94
2018-09-30T10:39:02.208Z,40.70
2018-09-30T10:41:31.783Z,41.24
2018-09-30T10:44:01.491Z,42.43
2018-09-30T10:46:31.135Z,41.68
2018-09-30T10:49:00.775Z,39.83
2018-09-30T10:51:30.452Z,40.34
2018-09-30T10:54:00.409Z,38.32
2018-09-30T10:56:30.072Z,39.47
2018-09-30T10:58:59.727Z,37.77
2018-09-30T11:01:29.410Z,37.66
2018-09-30T11:03:59.068Z,37.84
2018-09-30T11:06:28.751Z,38.80
2018-09-30T11:08:58.406Z,38.79
2018-09-30T11:11:28.059Z,39.39
2018-09-30T11:13:57.709Z,37.93
2018-09-30T11:16:27.410Z,37.33
2018-09-30T11:18:57.040Z,37.08
2018-09-30T11:21:26.700Z,37.35
2018-09-30T11:23:56.516Z,37.52
2018-09-30T11:26:26.228Z,37.60
2018-09-30T11:28:55.864Z,37.90
2018-09-30T11:31:25.555Z,36.09
2018-09-30T11:33:55.191Z,36.23
2018-09-30T11:36:25.684Z,35.77
2018-09-30T11:38:55.324Z,35.75
2018-09-30T11:41:24.988Z,36.94
2018-09-30T11:43:54.908Z,36.40
2018-09-30T11:46:24.547Z,36.34
2018-09-30T11:48:54.560Z,35.61
2018-09-30T11:51:24.325Z,36.65
2018-09-30T11:53:53.993Z,36.61
2018-09-30T11:56:23.660Z,34.87
2018-09-30T11:58:53.284Z,35.50
2018-09-30T12:01:23.030Z,34.95
2018-09-30T12:03:52.611Z,35.40
2018-09-30T12:06:22.271Z,33.33
2018-09-30T12:08:51.932Z,34.24
2018-09-30T12:11:21.579Z,35.54
2018-09-30T12:13:51.212Z,34.72
2018-09-30T12:16:20.864Z,33.48
2018-09-30T12:18:50.585Z,34.60
2018-09-30T12:21:20.220Z,34.00
2018-09-30T12:23:49.899Z,34.13
2018-09-30T12:26:19.553Z,32.71
2018-09-30T12:28:49.212Z,32.29
2018-09-30T12:31:18.875Z,34.05
2018-09-30T12:33:48.520Z,33.47
2018-09-30T12:36:18.237Z,33.52
2018-09-30T12:38:47.890Z,33.35
2018-09-30T12:41:17.520Z,33.42
2018-09-30T12:43:47.180Z,34.89
2018-09-30T12:46:16.860Z,33.92
2018-09-30T12:48:46.483Z,33.27
2018-09-30T12:51:16.158Z,32.72
2018-09-30T12:53:45.809Z,33.77
2018-09-30T12:56:15.468Z,33.23
2018-09-30T12:58:45.108Z,32.03
2018-09-30T13:01:14.776Z,33.90
2018-09-30T13:03:44.483Z,33.32
2018-09-30T13:06:14.480Z,32.53
2018-09-30T13:08:44.367Z,32.96
2018-09-30T13:11:14.036Z,31.47
2018-09-30T13:13:43.696Z,31.75
2018-09-30T13:16:13.396Z,32.20
2018-09-30T13:18:43.252Z,33.18
2018-09-30T13:21:12.935Z,33.06
2018-09-30T13:23:42.588Z,33.49
2018-09-30T13:26:12.274Z,33.00
2018-09-30T13:28:41.940Z,33.04
2018-09-30T13:31:11.588Z,31.42
2018-09-30T13:33:41.316Z,31.64
2018-09-30T13:36:11.103Z,31.29
2018-09-30T13:38:40.736Z,32.10
2018-09-30T13:41:10.670Z,32.12
2018-09-30T13:43:40.156Z,31.71
2018-09-30T13:46:09.872Z,32.04
2018-09-30T13:48:40.404Z,31.91
2018-09-30T13:51:10.082Z,31.61
2018-09-30T13:53:39.756Z,30.25
2018-09-30T13:56:09.432Z,29.51
2018-09-30T13:58:39.057Z,31.67
2018-09-30T14:01:08.853Z,31.72
2018-09-30T14:03:38.483Z,31.19
2018-09-30T14:06:08.255Z,29.72
2018-09-30T14:08:37.965Z,31.10
2018-09-30T14:11:07.625Z,30.65
2018-09-30T14:13:37.258Z,30.98
2018-09-30T14:16:06.976Z,31.78
2018-09-30T14:18:36.621Z,31.52
2018-09-30T14:21:06.404Z,30.47
2018-09-30T14:23:36.076Z,30.58
2018-09-30T14:26:06.164Z,32.25
2018-09-30T14:28:35.892Z,30.98
2018-09-30T14:31:05.592Z,31.83
2018-09-30T14:33:35.216Z,31.58
2018-09-30T14:36:04.897Z,31.42
2018-09-30T14:38:34.552Z,31.26
2018-09-30T14:41:04.232Z,31.00
2018-09-30T14:43:33.926Z,30.96
2018-09-30T14:46:03.625Z,31.06
2018-09-30T14:48:33.303Z,31.20
2018-09-30T14:51:03.285Z,32.14
2018-09-30T14:53:32.923Z,32.00
2018-09-30T14:56:02.646Z,32.32
2018-09-30T14:58:32.282Z,32.07
2018-09-30T15:01:01.921Z,32.54
2018-09-30T15:03:31.589Z,33.61
2018-09-30T15:06:01.377Z,34.31
2018-09-30T15:08:30.992Z,33.68
2018-09-30T15:11:00.663Z,34.56
2018-09-30T15:13:30.382Z,35.57
2018-09-30T15:16:00.016Z,34.27
2018-09-30T15:18:29.648Z,34.85
2018-09-30T15:21:04.916Z,34.62
2018-09-30T15:23:34.613Z,35.77
2018-09-30T15:26:04.316Z,35.48
2018-09-30T15:28:33.994Z,36.02
2018-09-30T15:31:03.664Z,35.21
2018-09-30T15:33:33.739Z,35.40
2018-09-30T15:36:03.504Z,35.99
2018-09-30T15:38:33.193Z,35.40
2018-09-30T15:41:02.889Z,36.15
2018-09-30T15:43:32.656Z,35.45
2018-09-30T15:46:02.364Z,36.27
2018-09-30T15:48:32.012Z,35.76
2018-09-30T15:51:01.718Z,36.50
2018-09-30T15:53:31.376Z,36.24
2018-09-30T15:56:01.091Z,37.42
2018-09-30T15:58:30.765Z,37.57
2018-09-30T16:01:00.492Z,37.87
2018-09-30T16:03:30.210Z,37.58
2018-09-30T16:05:59.965Z,37.98
2018-09-30T16:08:29.606Z,38.72
2018-09-30T16:10:59.307Z,38.75
2018-09-30T16:13:29.884Z,39.42
2018-09-30T16:15:59.583Z,38.76
2018-09-30T16:18:29.242Z,39.89
2018-09-30T16:20:58.940Z,40.01
2018-09-30T16:23:28.621Z,40.33
2018-09-30T16:25:58.300Z,40.97
2018-09-30T16:28:27.986Z,41.11
2018-09-30T16:30:57.692Z,41.62
2018-09-30T16:33:27.368Z,41.70
2018-09-30T16:35:57.080Z,42.39
2018-09-30T16:38:26.777Z,42.78
2018-09-30T16:40:56.516Z,42.29
2018-09-30T16:43:26.220Z,42.76
2018-09-30T16:45:55.942Z,42.55
2018-09-30T16:48:25.604Z,42.89
2018-09-30T16:50:55.291Z,42.75
2018-09-30T16:53:24.948Z,42.17
2018-09-30T16:55:54.624Z,43.27
2018-09-30T16:58:24.301Z,43.07
2018-09-30T17:00:53.979Z,42.86
2018-09-30T17:03:23.677Z,42.29
2018-09-30T17:05:53.383Z,43.34
2018-09-30T17:08:23.081Z,43.72
2018-09-30T17:10:52.782Z,44.10
2018-09-30T17:13:22.452Z,44.34
2018-09-30T17:15:52.248Z,45.31
2018-09-30T17:18:21.927Z,46.01
2018-09-30T17:20:51.629Z,46.37
2018-09-30T17:23:21.308Z,46.19
2018-09-30T17:25:50.996Z,47.43
2018-09-30T17:28:20.681Z,47.10
2018-09-30T17:30:50.531Z,47.37
2018-09-30T17:33:20.206Z,48.21
2018-09-30T17:35:49.872Z,47.90
2018-09-30T17:38:19.523Z,47.97
2018-09-30T17:40:49.224Z,47.97
2018-09-30T17:43:18.869Z,48.41
2018-09-30T17:45:48.560Z,48.28
2018-09-30T17:48:18.210Z,49.02
2018-09-30T17:50:47.875Z,48.71
2018-09-30T17:53:17.521Z,48.50
2018-09-30T17:55:47.192Z,49.66
2018-09-30T17:58:16.832Z,49.40
2018-09-30T18:00:46.507Z,50.61
2018-09-30T18:03:16.194Z,50.95
2018-09-30T18:05:45.888Z,51.74
2018-09-30T18:08:15.536Z,51.48
2018-09-30T18:10:45.218Z,51.72
2018-09-30T18:13:14.856Z,51.72
2018-09-30T18:15:44.507Z,51.48
2018-09-30T18:18:14.197Z,50.68
2018-09-30T18:20:43.849Z,50.19
2018-09-30T18:23:13.522Z,51.40
2018-09-30T18:25:43.193Z,50.27
2018-09-30T18:28:12.854Z,50.24
2018-09-30T18:30:42.532Z,50.05
2018-09-30T18:33:12.216Z,50.69
2018-09-30T18:35:41.939Z,51.41
2018-09-30T18:38:11.596Z,51.59
2018-09-30T18:40:43.893Z,52.50
2018-09-30T18:43:13.968Z,52.91
2018-09-30T18:45:44.028Z,53.35
2018-09-30T18:48:13.775Z,54.06
2018-09-30T18:50:43.454Z,53.12
2018-09-30T18:53:13.190Z,53.09
2018-09-30T18:55:42.899Z,52.42
2018-09-30T18:58:12.949Z,51.90
2018-09-30T19:00:42.657Z,51.69
2018-09-30T19:03:12.375Z,51.12
2018-09-30T19:05:42.084Z,51.86
2018-09-30T19:08:11.773Z,51.81
2018-09-30T19:10:41.464Z,52.52
2018-09-30T19:13:11.160Z,53.19
2018-09-30T19:15:40.831Z,53.08
2018-09-30T19:18:10.512Z,53.32
2018-09-30T19:20:40.195Z,53.50
2018-09-30T19:23:09.876Z,54.63
2018-09-30T19:25:39.519Z,54.52
2018-09-30T19:28:09.268Z,54.44
2018-09-30T19:30:38.908Z,55.01
2018-09-30T19:33:08.573Z,54.97
2018-09-30T19:35:38.226Z,55.41
2018-09-30T19:38:07.897Z,55.14
2018-09-30T19:40:37.565Z,55.27
2018-09-30T19:43:07.253Z,55.35
2018-09-30T19:45:36.904Z,56.09
2018-09-30T19:48:06.777Z,56.07
2018-09-30T19:50:36.470Z,56.43
2018-09-30T19:53:06.224Z,55.78
2018-09-30T19:55:35.879Z,56.01
2018-09-30T19:58:05.557Z,56.38
2018-09-30T20:00:35.844Z,56.76
2018-09-30T20:03:05.517Z,56.78
2018-09-30T20:05:35.168Z,56.57
2018-09-30T20:08:04.893Z,56.75
2018-09-30T20:10:34.591Z,57.24
2018-09-30T20:13:04.347Z,57.54
2018-09-30T20:15:34.004Z,57.59
2018-09-30T20:18:03.682Z,57.92
2018-09-30T20:20:33.334Z,57.95
2018-09-30T20:23:03.000Z,58.48
2018-09-30T20:25:32.664Z,58.45
2018-09-30T20:28:08.892Z,58.87
2018-09-30T20:30:38.544Z,58.25
2018-09-30T20:33:08.257Z,58.38
2018-09-30T20:35:37.953Z,59.06
2018-09-30T20:38:07.632Z,58.79
2018-09-30T20:40:40.020Z,58.90
2018-09-30T20:43:09.713Z,59.17
2018-09-30T20:45:39.911Z,59.01
2018-09-30T20:48:10.017Z,59.42
2018-09-30T20:50:39.666Z,59.37
2018-09-30T20:53:09.328Z,59.36
2018-09-30T20:55:39.001Z,59.22
2018-09-30T20:58:08.683Z,58.93
2018-09-30T21:00:38.436Z,59.61
2018-09-30T21:03:08.209Z,59.38
2018-09-30T21:06:44.920Z,59.89
2018-09-30T21:09:17.389Z,59.53
2018-09-30T21:11:47.076Z,59.93
2018-09-30T21:14:16.748Z,61.00
2018-09-30T21:16:46.436Z,61.00
2018-09-30T21:19:16.081Z,61.47
2018-09-30T21:21:45.756Z,61.27
2018-09-30T21:24:15.408Z,60.46
2018-09-30T21:26:45.072Z,60.74
2018-09-30T21:29:14.708Z,61.24
2018-09-30T21:31:44.368Z,61.00
2018-09-30T21:34:14.053Z,60.75
2018-09-30T21:36:43.713Z,61.32
2018-09-30T21:39:13.377Z,61.66
2018-09-30T21:41:43.052Z,62.23
2018-09-30T21:44:12.684Z,62.01
2018-09-30T21:46:42.380Z,62.85
2018-09-30T21:49:12.045Z,62.72
2018-09-30T21:51:41.784Z,62.67
2018-09-30T21:54:11.433Z,63.99
2018-09-30T21:56:41.139Z,63.17
2018-09-30T21:59:10.800Z,64.45
2018-09-30T22:01:40.520Z,63.18
2018-09-30T22:04:10.185Z,63.91
2018-09-30T22:06:39.861Z,63.46
2018-09-30T22:09:09.580Z,62.73
2018-09-30T22:11:39.228Z,62.86
2018-09-30T22:14:08.900Z,62.93
2018-09-30T22:16:38.544Z,62.46
2018-09-30T22:19:08.290Z,63.07
2018-09-30T22:21:37.904Z,63.14
2018-09-30T22:24:07.607Z,63.23
2018-09-30T22:26:37.308Z,63.03
2018-09-30T22:29:06.972Z,63.28
2018-09-30T22:31:36.623Z,63.36
2018-09-30T22:34:06.272Z,63.32
2018-09-30T22:36:35.915Z,63.01
2018-09-30T22:39:07.292Z,64.04
2018-09-30T22:41:36.935Z,63.78
2018-09-30T22:44:06.684Z,64.14
2018-09-30T22:46:36.309Z,64.21
2018-09-30T22:49:06.004Z,63.40
2018-09-30T22:51:35.715Z,63.52
2018-09-30T22:54:05.393Z,64.35
2018-09-30T22:56:35.050Z,64.63
2018-09-30T22:59:04.752Z,64.88
2018-09-30T23:01:34.477Z,64.59
2018-09-30T23:04:04.158Z,64.31
2018-09-30T23:06:33.804Z,64.90
2018-09-30T23:09:03.652Z,64.21
2018-09-30T23:11:33.295Z,64.33
2018-09-30T23:14:02.985Z,63.69
2018-09-30T23:16:32.658Z,64.17
2018-09-30T23:19:02.343Z,63.76
2018-09-30T23:21:32.012Z,64.85
2018-09-30T23:24:01.688Z,65.10
2018-09-30T23:26:31.316Z,64.45
2018-09-30T23:29:00.979Z,64.57
2018-09-30T23:31:30.611Z,64.39
2018-09-30T23:34:00.268Z,64.08
2018-09-30T23:36:29.896Z,64.48
2018-09-30T23:38:59.577Z,65.02
2018-09-30T23:41:29.221Z,64.60
2018-09-30T23:43:58.896Z,65.10
2018-09-30T23:46:28.545Z,65.05
2018-09-30T23:48:58.235Z,65.31
2018-09-30T23:51:27.873Z,65.19
2018-09-30T23:53:57.555Z,65.22
2018-09-30T23:56:27.193Z,65.31
2018-09-30T23:58:56.888Z,65.75
